Time;durP1;ratioP1;P1;durP2;ratioP2;P2;SDS_P1;SDS_P2;PMS_P1;PMS_P2;Temp;Humidity;BMP_temperature;BMP_pressure;BME280_temperature;BME280_humidity;BME280_pressure;Samples;Min_cycle;Max_cycle;Signal;HPM_P1;HPM_P2
2023/07/30 00:01:39;;;;;;;5.13;3.50;;;;;;;21.55;nan;61977.66;5073547;28;20196;-57
2023/07/30 00:04:05;;;;;;;5.38;3.08;;;;;;;21.55;nan;61758.66;5073387;28;20201;-57
2023/07/30 00:06:30;;;;;;;5.40;3.72;;;;;;;21.53;nan;61722.59;5074154;28;20644;-57
2023/07/30 00:08:56;;;;;;;8.68;3.60;;;;;;;21.51;nan;61751.53;5073630;28;20235;-56
2023/07/30 00:11:21;;;;;;;4.72;3.33;;;;;;;21.43;nan;61763.81;5073489;28;20193;-57
2023/07/30 00:13:47;;;;;;;5.68;3.70;;;;;;;21.20;nan;61835.91;5073651;28;20170;-57
2023/07/30 00:16:12;;;;;;;5.25;3.50;;;;;;;21.21;nan;61624.53;5074090;28;20193;-57
2023/07/30 00:18:37;;;;;;;4.65;3.55;;;;;;;21.23;nan;61740.56;5073363;28;20174;-57
2023/07/30 00:21:03;;;;;;;5.40;3.47;;;;;;;21.32;nan;61740.38;5073775;28;20198;-57
2023/07/30 00:23:28;;;;;;;6.32;3.75;;;;;;;21.30;nan;61964.81;5073361;28;20479;-57
2023/07/30 00:25:53;;;;;;;5.00;3.28;;;;;;;21.29;nan;61705.78;5073762;28;20277;-56
2023/07/30 00:28:19;;;;;;;5.00;3.50;;;;;;;21.08;nan;61674.75;5072668;28;20576;-56
2023/07/30 00:30:45;;;;;;;5.63;3.50;;;;;;;18.45;nan;63210.44;5073365;28;20232;-57
2023/07/30 00:33:10;;;;;;;8.77;3.65;;;;;;;21.22;nan;61727.00;5072169;28;20217;-56
2023/07/30 00:35:36;;;;;;;6.32;3.88;;;;;;;21.07;nan;61694.97;5073001;28;20166;-56
2023/07/30 00:38:01;;;;;;;6.53;3.80;;;;;;;20.85;nan;61773.91;5073176;28;20170;-56
2023/07/30 00:40:26;;;;;;;6.38;3.60;;;;;;;20.77;nan;61609.00;5072891;28;20174;-57
2023/07/30 00:42:52;;;;;;;11.32;4.20;;;;;;;20.93;nan;61679.09;5073351;28;20256;-56
2023/07/30 00:45:17;;;;;;;4.63;3.35;;;;;;;20.87;nan;61671.72;5072928;28;20284;-56
2023/07/30 00:47:43;;;;;;;5.70;3.70;;;;;;;20.95;nan;61678.75;5072524;28;20292;-55
2023/07/30 00:50:12;;;;;;;5.70;3.28;;;;;;;21.01;nan;61649.19;5072822;28;20533;-56
2023/07/30 00:52:38;;;;;;;5.85;3.75;;;;;;;21.02;nan;61741.25;5071742;28;20525;-56
2023/07/30 00:55:06;;;;;;;7.57;4.22;;;;;;;20.93;nan;61655.72;5073090;28;20178;-56
2023/07/30 00:57:32;;;;;;;6.28;3.70;;;;;;;20.76;nan;61656.66;5072720;28;20182;-57
2023/07/30 00:59:57;;;;;;;6.03;3.83;;;;;;;20.55;nan;61600.25;5072794;28;20220;-56
2023/07/30 01:02:23;;;;;;;5.45;3.67;;;;;;;20.42;nan;61600.53;5072236;28;20265;-57
2023/07/30 01:04:49;;;;;;;7.28;4.07;;;;;;;20.44;nan;61613.19;5072501;28;20344;-56
2023/07/30 01:07:15;;;;;;;5.20;3.65;;;;;;;20.48;nan;61685.19;5072705;28;20205;-56
2023/07/30 01:09:41;;;;;;;7.30;4.07;;;;;;;20.17;nan;61495.50;5072172;28;20695;-56
2023/07/30 01:12:07;;;;;;;8.80;4.10;;;;;;;20.17;nan;61708.22;5072293;28;20170;-57
2023/07/30 01:14:33;;;;;;;5.60;3.58;;;;;;;20.02;nan;61550.59;5071726;28;20205;-57
2023/07/30 01:16:58;;;;;;;7.20;4.30;;;;;;;19.93;nan;61559.13;5072244;28;20173;-56
2023/07/30 01:19:24;;;;;;;6.13;4.18;;;;;;;20.13;nan;61599.94;5072432;28;20549;-57
2023/07/30 01:21:49;;;;;;;5.82;3.83;;;;;;;19.99;nan;61550.34;5072547;28;20633;-56
2023/07/30 01:24:15;;;;;;;7.15;3.80;;;;;;;20.11;nan;61550.97;5072262;28;20249;-56
2023/07/30 01:26:47;;;;;;;6.18;3.95;;;;;;;20.11;nan;61545.22;5071862;28;20201;-56
2023/07/30 01:29:22;;;;;;;5.30;3.80;;;;;;;20.13;nan;61578.59;5071846;28;20661;-55
2023/07/30 01:31:55;;;;;;;4.82;3.47;;;;;;;19.90;nan;61697.78;5072040;28;20256;-57
2023/07/30 01:34:23;;;;;;;5.60;3.75;;;;;;;19.98;nan;61569.97;5070260;28;20177;-57
2023/07/30 01:36:49;;;;;;;5.82;3.75;;;;;;;19.84;nan;61696.72;5072192;28;20276;-56
2023/07/30 01:39:15;;;;;;;6.88;3.53;;;;;;;19.73;nan;61495.00;5072052;28;20689;-56
2023/07/30 01:41:41;;;;;;;6.47;3.85;;;;;;;20.08;nan;61601.47;5072183;28;20231;-56
2023/07/30 01:44:07;;;;;;;5.60;3.60;;;;;;;19.82;nan;61617.25;5070335;28;20620;-56
2023/07/30 01:46:32;;;;;;;6.65;3.65;;;;;;;19.87;nan;61512.88;5071647;28;20284;-56
2023/07/30 01:48:57;;;;;;;5.38;3.67;;;;;;;19.81;nan;61535.16;5071752;28;20166;-58
2023/07/30 01:51:23;;;;;;;6.57;4.30;;;;;;;19.71;nan;61500.50;5071884;28;20220;-56
2023/07/30 01:53:48;;;;;;;6.35;4.20;;;;;;;19.51;nan;61475.31;5071427;28;20227;-56
2023/07/30 01:56:14;;;;;;;6.97;3.95;;;;;;;19.66;nan;61702.78;5071407;28;20231;-56
2023/07/30 01:58:39;;;;;;;5.60;4.00;;;;;;;19.85;nan;61555.81;5071137;28;20178;-56
2023/07/30 02:01:04;;;;;;;7.63;3.67;;;;;;;19.87;nan;61544.56;5071354;28;20677;-56
2023/07/30 02:03:30;;;;;;;6.28;4.13;;;;;;;19.60;nan;61506.22;5070987;28;20263;-56
2023/07/30 02:05:55;;;;;;;9.43;4.03;;;;;;;19.60;nan;61524.38;5071246;28;20225;-56
2023/07/30 02:08:20;;;;;;;8.90;3.83;;;;;;;19.77;nan;61538.41;5071444;28;20170;-56
2023/07/30 02:10:58;;;;;;;5.20;3.65;;;;;;;19.76;nan;61628.03;5071242;28;20644;-56
2023/07/30 02:13:24;;;;;;;4.70;3.10;;;;;;;19.75;nan;61515.41;5071733;28;20195;-56
2023/07/30 02:15:49;;;;;;;5.32;3.58;;;;;;;19.55;nan;61479.84;5071631;28;20185;-57
2023/07/30 02:18:14;;;;;;;4.57;3.05;;;;;;;19.72;nan;61522.97;5071840;28;20176;-56
2023/07/30 02:20:40;;;;;;;5.60;3.67;;;;;;;19.69;nan;61519.56;5071709;28;20178;-56
2023/07/30 02:23:05;;;;;;;6.40;3.90;;;;;;;19.56;nan;61499.13;5071104;28;20593;-56
2023/07/30 02:25:31;;;;;;;6.82;3.58;;;;;;;19.44;nan;61771.13;5071643;28;20174;-55
2023/07/30 02:27:56;;;;;;;6.20;3.22;;;;;;;19.61;nan;61533.25;5071131;28;20197;-56
2023/07/30 02:30:22;;;;;;;4.43;3.50;;;;;;;19.52;nan;61538.63;5071393;28;20692;-57
2023/07/30 02:32:47;;;;;;;5.60;3.78;;;;;;;19.23;nan;61612.56;5071853;28;20174;-56
2023/07/30 02:35:13;;;;;;;6.03;3.88;;;;;;;19.16;nan;61416.13;5071674;28;20178;-56
2023/07/30 02:37:38;;;;;;;5.15;3.50;;;;;;;19.45;nan;61572.16;5071517;28;20194;-56
2023/07/30 02:40:04;;;;;;;7.15;3.75;;;;;;;19.39;nan;61594.97;5071357;28;20296;-56
2023/07/30 02:42:31;;;;;;;5.15;3.75;;;;;;;19.57;nan;61583.72;5070831;28;20174;-56
2023/07/30 02:44:56;;;;;;;6.60;3.83;;;;;;;19.54;nan;61491.66;5071890;28;20177;-56
2023/07/30 02:47:22;;;;;;;5.45;3.85;;;;;;;19.27;nan;61488.13;5071111;28;20198;-56
2023/07/30 02:49:47;;;;;;;4.63;3.33;;;;;;;19.39;nan;61488.75;5071046;28;20192;-56
2023/07/30 02:52:12;;;;;;;4.43;3.42;;;;;;;;;;5070666;28;20357;-56
2023/07/30 02:54:38;;;;;;;5.78;3.65;;;;;;;19.31;nan;61492.66;5071403;28;20585;-55
2023/07/30 02:57:03;;;;;;;5.97;3.50;;;;;;;19.11;nan;61443.56;5070625;28;20166;-56
2023/07/30 02:59:29;;;;;;;4.78;3.17;;;;;;;19.09;nan;61571.38;5071383;28;20158;-56
2023/07/30 03:01:54;;;;;;;5.80;3.38;;;;;;;19.32;nan;61524.88;5071452;28;20176;-56
2023/07/30 03:04:20;;;;;;;5.55;3.58;;;;;;;19.34;nan;61523.97;5071262;28;20266;-56
2023/07/30 03:06:45;;;;;;;5.95;3.75;;;;;;;19.12;nan;61654.47;5071360;28;20236;-55
2023/07/30 03:09:10;;;;;;;6.22;3.58;;;;;;;19.05;nan;61602.53;5070871;28;20206;-56
2023/07/30 03:11:36;;;;;;;4.18;3.05;;;;;;;19.33;nan;61453.47;5070414;28;20181;-56
2023/07/30 03:14:01;;;;;;;4.38;2.97;;;;;;;19.20;nan;61471.88;5071193;28;20206;-56
2023/07/30 03:16:27;;;;;;;5.60;3.25;;;;;;;19.36;nan;61539.78;5072853;28;20531;-56
2023/07/30 03:18:52;;;;;;;5.95;3.38;;;;;;;19.40;nan;61541.72;5075357;28;20174;-56
2023/07/30 03:21:17;;;;;;;4.53;3.30;;;;;;;19.46;nan;61552.56;5074397;28;20166;-55
2023/07/30 03:23:44;;;;;;;4.82;3.30;;;;;;;20.00;nan;61618.34;5074375;28;20174;-55
2023/07/30 03:26:10;;;;;;;10.02;3.13;;;;;;;20.33;nan;61559.75;5073790;28;20225;-56
2023/07/30 03:28:36;;;;;;;5.40;3.00;;;;;;;20.66;nan;61737.34;5074372;28;20162;-55
2023/07/30 03:31:01;;;;;;;4.47;3.10;;;;;;;21.56;nan;61755.16;5074423;28;20671;-56
2023/07/30 03:33:26;;;;;;;4.32;3.10;;;;;;;22.30;nan;61899.94;5074031;28;20198;-56
2023/07/30 03:35:52;;;;;;;5.32;3.40;;;;;;;22.73;nan;62037.44;5073811;28;20216;-56
2023/07/30 03:38:17;;;;;;;4.90;3.22;;;;;;;23.22;nan;61948.66;5074260;28;20204;-56
2023/07/30 03:40:43;;;;;;;4.13;3.28;;;;;;;23.90;nan;62056.78;5073080;28;20231;-56
2023/07/30 03:43:08;;;;;;;6.28;3.25;;;;;;;24.35;nan;62101.66;5073591;28;20170;-56
2023/07/30 03:45:34;;;;;;;7.28;3.58;;;;;;;24.88;nan;62177.69;5073927;28;20208;-56
2023/07/30 03:47:59;;;;;;;4.75;3.33;;;;;;;25.01;nan;62270.41;5073541;28;20166;-56
2023/07/30 03:50:24;;;;;;;6.22;3.30;;;;;;;25.69;nan;62282.00;5074122;28;20206;-56
2023/07/30 03:52:50;;;;;;;5.43;3.20;;;;;;;26.08;nan;62375.69;5073655;28;20170;-57
2023/07/30 03:55:15;;;;;;;6.78;3.85;;;;;;;26.68;nan;62485.59;5073274;28;20174;-57
2023/07/30 03:57:41;;;;;;;6.68;3.47;;;;;;;26.24;nan;62375.63;5073708;28;20176;-57
2023/07/30 04:00:07;;;;;;;6.95;3.85;;;;;;;27.92;nan;62630.47;5073755;28;20560;-57
2023/07/30 04:02:32;;;;;;;5.15;3.17;;;;;;;28.56;nan;62621.69;5073969;28;20543;-57
2023/07/30 04:04:57;;;;;;;4.20;3.22;;;;;;;28.86;nan;62740.22;5073489;28;20239;-56
2023/07/30 04:07:24;;;;;;;4.45;3.20;;;;;;;29.27;nan;62717.63;5073232;28;20214;-56
2023/07/30 04:09:49;;;;;;;5.68;3.53;;;;;;;29.86;nan;62826.84;5073356;28;20663;-56
2023/07/30 04:12:15;;;;;;;6.40;3.90;;;;;;;30.08;nan;62840.94;5073503;28;20175;-57
2023/07/30 04:14:40;;;;;;;5.43;3.38;;;;;;;30.74;nan;63026.41;5073748;28;20174;-57
2023/07/30 04:17:05;;;;;;;4.53;3.20;;;;;;;30.87;nan;63028.13;5073711;28;20166;-56
2023/07/30 04:19:31;;;;;;;4.45;3.28;;;;;;;31.07;nan;63067.00;5073521;28;20186;-56
2023/07/30 04:21:56;;;;;;;4.53;3.17;;;;;;;31.38;nan;63152.84;5073391;28;20174;-56
2023/07/30 04:24:22;;;;;;;5.90;3.22;;;;;;;31.34;nan;63124.47;5073001;28;20166;-56
2023/07/30 04:26:47;;;;;;;5.15;3.40;;;;;;;31.40;nan;63337.47;5072949;28;20331;-56
2023/07/30 04:29:13;;;;;;;4.95;3.35;;;;;;;31.52;nan;63092.31;5073375;28;20166;-57
2023/07/30 04:31:39;;;;;;;4.93;3.50;;;;;;;31.68;nan;63268.78;5073048;28;20551;-56
2023/07/30 04:34:04;;;;;;;5.32;3.22;;;;;;;31.81;nan;63153.63;5073101;28;20170;-56
2023/07/30 04:36:30;;;;;;;5.55;3.28;;;;;;;31.53;nan;63238.84;5072577;28;20181;-57
2023/07/30 04:38:55;;;;;;;5.25;3.50;;;;;;;31.33;nan;63159.72;5073256;28;20208;-57
2023/07/30 04:41:21;;;;;;;5.03;2.97;;;;;;;31.19;nan;63247.22;5073070;28;20236;-56
2023/07/30 04:43:47;;;;;;;5.55;3.25;;;;;;;31.08;nan;63134.16;5073097;28;20629;-57
2023/07/30 04:46:12;;;;;;;3.50;2.40;;;;;;;30.77;nan;62985.53;5072791;28;20190;-57
2023/07/30 04:48:38;;;;;;;5.10;2.42;;;;;;;30.45;nan;63028.53;5072753;28;20174;-57
2023/07/30 04:51:03;;;;;;;4.07;2.63;;;;;;;30.11;nan;62999.97;5073021;28;20258;-57
2023/07/30 04:53:29;;;;;;;3.33;2.60;;;;;;;29.83;nan;62866.13;5072901;28;20181;-57
2023/07/30 04:55:57;;;;;;;6.55;2.75;;;;;;;29.45;nan;62816.69;5073045;28;20166;-57
2023/07/30 04:58:23;;;;;;;3.42;2.47;;;;;;;29.50;nan;62859.91;5072922;28;20215;-58
2023/07/30 05:00:48;;;;;;;3.72;2.53;;;;;;;29.12;nan;62732.03;5070988;28;20275;-58
2023/07/30 05:03:15;;;;;;;4.55;3.00;;;;;;;28.50;nan;62804.75;5071528;28;20174;-58
2023/07/30 05:05:40;;;;;;;4.22;2.78;;;;;;;27.76;nan;62449.88;5071682;28;20374;-58
2023/07/30 05:08:06;;;;;;;3.08;2.45;;;;;;;27.83;nan;62586.59;5071393;28;20649;-58
2023/07/30 05:10:31;;;;;;;4.63;2.80;;;;;;;27.75;nan;62561.66;5071396;28;20575;-57
2023/07/30 05:12:57;;;;;;;4.40;2.80;;;;;;;27.84;nan;62663.91;5068600;28;20193;-59
2023/07/30 05:15:22;;;;;;;5.25;3.03;;;;;;;27.44;nan;62668.56;5071528;28;20185;-58
2023/07/30 05:17:47;;;;;;;4.43;2.90;;;;;;;27.78;nan;62569.78;5071088;28;20644;-57
2023/07/30 05:20:13;;;;;;;4.07;3.30;;;;;;;27.89;nan;62701.16;5071477;28;20193;-57
2023/07/30 05:22:38;;;;;;;5.00;2.53;;;;;;;27.84;nan;62600.88;5071271;28;20224;-56
2023/07/30 05:25:04;;;;;;;4.38;2.67;;;;;;;27.78;nan;62603.94;5071125;28;20227;-57
2023/07/30 05:27:31;;;;;;;3.78;2.75;;;;;;;27.63;nan;62773.81;5070818;28;20208;-57
2023/07/30 05:29:57;;;;;;;3.72;2.78;;;;;;;27.35;nan;62518.53;5071968;28;20162;-57
2023/07/30 05:32:22;;;;;;;4.25;2.75;;;;;;;27.05;nan;62713.66;5070671;28;20184;-56
2023/07/30 05:34:48;;;;;;;5.50;3.00;;;;;;;26.47;nan;62608.41;5072192;28;20223;-57
2023/07/30 05:37:14;;;;;;;3.85;3.03;;;;;;;26.27;nan;62331.88;5070897;28;20633;-58
2023/07/30 05:39:39;;;;;;;4.07;2.92;;;;;;;26.29;nan;62344.09;5071038;28;20180;-57
2023/07/30 05:42:04;;;;;;;3.30;2.60;;;;;;;26.35;nan;62406.56;5071150;28;20170;-56
2023/07/30 05:44:30;;;;;;;3.60;2.72;;;;;;;26.33;nan;62377.47;5070443;28;20170;-57
2023/07/30 05:46:56;;;;;;;4.50;2.97;;;;;;;26.32;nan;62374.28;5069932;28;20212;-57
2023/07/30 05:49:21;;;;;;;3.70;2.60;;;;;;;25.91;nan;62419.13;5071658;28;20158;-57
2023/07/30 05:51:46;;;;;;;4.18;3.03;;;;;;;25.74;nan;62224.28;5071085;28;20205;-56
2023/07/30 05:54:12;;;;;;;3.92;2.78;;;;;;;25.78;nan;62276.56;5071538;28;20170;-57
2023/07/30 05:56:38;;;;;;;3.40;2.83;;;;;;;25.72;nan;62227.25;5071549;28;20158;-56
2023/07/30 05:59:03;;;;;;;3.78;2.92;;;;;;;25.79;nan;62264.59;5070890;28;20212;-56
2023/07/30 06:01:29;;;;;;;4.75;3.15;;;;;;;25.63;nan;62353.09;5071565;28;20224;-56
2023/07/30 06:03:54;;;;;;;4.05;2.85;;;;;;;25.78;nan;62268.13;5071153;28;20608;-56
2023/07/30 06:06:26;;;;;;;4.97;2.95;;;;;;;26.10;nan;62377.97;5070331;28;20225;-57
2023/07/30 06:08:52;;;;;;;3.75;2.58;;;;;;;26.27;nan;62371.19;5071505;28;20197;-57
2023/07/30 06:11:18;;;;;;;4.90;3.00;;;;;;;26.49;nan;62389.94;5071260;28;20200;-57
2023/07/30 06:13:43;;;;;;;3.72;2.90;;;;;;;26.38;nan;62396.88;5071451;28;21048;-56
2023/07/30 06:16:10;;;;;;;3.40;2.53;;;;;;;26.43;nan;62385.69;5070850;28;20701;-56
2023/07/30 06:18:35;;;;;;;4.10;2.70;;;;;;;26.29;nan;62368.25;5071326;28;20175;-56
2023/07/30 06:21:01;;;;;;;2.72;2.35;;;;;;;26.56;nan;62401.13;5070699;28;20564;-57
2023/07/30 06:23:26;;;;;;;3.50;2.58;;;;;;;26.79;nan;62443.13;5071199;28;20173;-57
2023/07/30 06:25:51;;;;;;;4.00;2.65;;;;;;;26.90;nan;62438.81;5070876;28;20170;-59
2023/07/30 06:28:17;;;;;;;4.07;2.70;;;;;;;26.77;nan;62383.13;5071138;28;20211;-57
2023/07/30 06:30:42;;;;;;;3.97;2.67;;;;;;;26.89;nan;62553.66;5070999;28;20710;-58
2023/07/30 06:33:08;;;;;;;4.43;2.30;;;;;;;27.02;nan;62450.47;5071069;28;20166;-57
2023/07/30 06:35:33;;;;;;;3.30;2.40;;;;;;;26.87;nan;62572.34;5071315;28;20548;-58
2023/07/30 06:37:58;;;;;;;2.65;2.33;;;;;;;26.71;nan;62506.84;5071030;28;20173;-55
2023/07/30 06:40:24;;;;;;;4.38;2.67;;;;;;;26.73;nan;62399.53;5069923;28;20182;-56
2023/07/30 06:42:49;;;;;;;3.92;2.58;;;;;;;26.80;nan;62399.09;5085780;28;20188;-57
2023/07/30 06:45:15;;;;;;;4.53;3.00;;;;;;;26.79;nan;62529.66;5074165;28;20177;-57
2023/07/30 06:47:40;;;;;;;3.35;2.58;;;;;;;26.79;nan;62660.81;5072101;28;20567;-56
2023/07/30 06:50:09;;;;;;;4.30;3.22;;;;;;;26.66;nan;62527.34;5090945;28;20177;-57
2023/07/30 06:52:35;;;;;;;6.60;2.85;;;;;;;26.56;nan;62521.72;5094655;28;20274;-57
2023/07/30 06:55:02;;;;;;;3.63;2.67;;;;;;;26.70;nan;62527.25;5094636;28;20640;-57
2023/07/30 06:57:28;;;;;;;4.53;2.83;;;;;;;26.59;nan;62320.09;5094818;28;20177;-57
2023/07/30 06:59:54;;;;;;;5.40;2.88;;;;;;;26.87;nan;62441.22;5086420;28;20185;-58
2023/07/30 07:02:19;;;;;;;4.32;2.83;;;;;;;27.33;nan;62497.91;5080962;28;20235;-57
2023/07/30 07:04:45;;;;;;;4.47;2.83;;;;;;;26.95;nan;62536.94;5075663;28;20663;-55
2023/07/30 07:07:10;;;;;;;3.45;2.53;;;;;;;27.20;nan;62610.13;5074512;28;20192;-56
2023/07/30 07:09:36;;;;;;;4.70;3.35;;;;;;;27.26;nan;62487.84;5089749;28;20186;-56
2023/07/30 07:12:01;;;;;;;6.82;2.55;;;;;;;27.47;nan;62553.25;5094304;28;20158;-57
2023/07/30 07:14:26;;;;;;;5.78;3.00;;;;;;;27.46;nan;62638.78;5076069;28;20173;-57
2023/07/30 07:16:54;;;;;;;5.05;2.88;;;;;;;27.59;nan;62585.97;5094155;28;20215;-56
2023/07/30 07:19:20;;;;;;;5.75;2.90;;;;;;;27.59;nan;62557.09;5093967;28;20179;-57
2023/07/30 07:21:45;;;;;;;4.28;2.92;;;;;;;27.52;nan;62659.34;5094292;28;20169;-56
2023/07/30 07:24:10;;;;;;;3.83;2.65;;;;;;;27.49;nan;62568.69;5094645;28;20181;-56
2023/07/30 07:26:36;;;;;;;3.90;3.00;;;;;;;27.76;nan;62583.84;5093961;28;20185;-57
2023/07/30 07:29:01;;;;;;;4.22;2.85;;;;;;;28.18;nan;62743.81;5087813;28;20613;-57
2023/07/30 07:31:27;;;;;;;4.63;2.95;;;;;;;28.31;nan;62706.69;5082004;28;20181;-57
2023/07/30 07:33:52;;;;;;;3.95;3.00;;;;;;;28.13;nan;62732.81;5083467;28;20653;-56
2023/07/30 07:36:18;;;;;;;4.07;2.92;;;;;;;28.03;nan;62585.25;5073794;28;20178;-56
2023/07/30 07:38:43;;;;;;;4.95;2.78;;;;;;;27.71;nan;62672.09;5089115;28;20173;-56
2023/07/30 07:41:15;;;;;;;4.72;3.33;;;;;;;28.08;nan;62778.16;5094042;28;20200;-57
2023/07/30 07:43:40;;;;;;;4.15;2.80;;;;;;;28.50;nan;62641.09;5093906;28;20173;-57
2023/07/30 07:46:13;;;;;;;4.43;3.20;;;;;;;28.57;nan;62727.47;5085339;28;20205;-57
2023/07/30 07:48:41;;;;;;;4.50;3.20;;;;;;;28.43;nan;62783.56;5084371;28;20177;-56
2023/07/30 07:51:09;;;;;;;4.13;2.80;;;;;;;28.80;nan;62693.31;5079663;28;20287;-57
2023/07/30 07:53:34;;;;;;;4.03;2.83;;;;;;;28.67;nan;62754.72;5073518;28;20690;-57
2023/07/30 07:55:59;;;;;;;5.30;3.10;;;;;;;28.51;nan;62708.00;5092444;28;20264;-57
2023/07/30 07:58:25;;;;;;;3.42;3.00;;;;;;;28.47;nan;62677.13;5084503;28;20217;-57
2023/07/30 08:00:53;;;;;;;3.88;2.85;;;;;;;28.58;nan;62728.59;5084572;28;20639;-56
2023/07/30 08:03:19;;;;;;;3.75;3.03;;;;;;;28.60;nan;62809.81;5079062;28;20192;-56
2023/07/30 08:05:45;;;;;;;3.88;2.90;;;;;;;26.00;nan;64341.44;5072961;28;20301;-56
2023/07/30 08:08:10;;;;;;;4.72;2.90;;;;;;;29.11;nan;62781.47;5085945;28;20272;-56
2023/07/30 08:10:39;;;;;;;4.20;3.08;;;;;;;29.29;nan;62814.69;5081350;28;20203;-56
2023/07/30 08:13:05;;;;;;;3.90;3.03;;;;;;;29.30;nan;62789.53;5082427;28;20181;-56
2023/07/30 08:15:30;;;;;;;3.85;2.85;;;;;;;29.79;nan;62937.38;5072747;28;20473;-57
2023/07/30 08:17:56;;;;;;;4.05;2.95;;;;;;;29.98;nan;63156.97;5088224;28;20185;-57
2023/07/30 08:20:21;;;;;;;3.53;3.00;;;;;;;30.23;nan;62990.03;5087416;28;20213;-56
2023/07/30 08:22:46;;;;;;;6.38;2.90;;;;;;;30.24;nan;63068.22;5080519;28;20663;-56
2023/07/30 08:25:12;;;;;;;4.70;3.03;;;;;;;30.45;nan;63051.66;5081573;28;20188;-56
2023/07/30 08:27:37;;;;;;;5.80;3.88;;;;;;;30.46;nan;63024.41;5072780;28;20236;-56
2023/07/30 08:30:03;;;;;;;5.93;3.92;;;;;;;30.32;nan;63095.34;5088424;28;20519;-56
2023/07/30 08:32:28;;;;;;;4.80;3.35;;;;;;;30.28;nan;62964.13;5092534;28;20264;-56
2023/07/30 08:34:54;;;;;;;4.82;3.17;;;;;;;30.35;nan;62963.66;5092450;28;20620;-56
2023/07/30 08:37:19;;;;;;;6.00;3.33;;;;;;;30.47;nan;63006.50;5092467;28;20176;-56
2023/07/30 08:39:44;;;;;;;3.35;2.80;;;;;;;30.46;nan;62976.34;5092405;28;20616;-56
2023/07/30 08:42:10;;;;;;;5.80;3.15;;;;;;;30.58;nan;63032.91;5075791;28;20269;-55
2023/07/30 08:44:35;;;;;;;5.40;3.80;;;;;;;30.70;nan;63038.78;5089888;28;20177;-56
2023/07/30 08:47:01;;;;;;;4.53;3.20;;;;;;;30.94;nan;63120.66;5071541;28;20220;-57
2023/07/30 08:49:32;;;;;;;4.03;3.00;;;;;;;30.63;nan;63036.03;5078455;28;20191;-57
2023/07/30 08:51:58;;;;;;;8.25;3.40;;;;;;;30.22;nan;62925.56;5082380;28;20264;-56
2023/07/30 08:54:27;;;;;;;4.60;3.25;;;;;;;30.62;nan;63015.81;5072453;28;20255;-56
2023/07/30 08:56:53;;;;;;;4.55;2.83;;;;;;;30.64;nan;63016.06;5072698;28;20680;-56
2023/07/30 08:59:20;;;;;;;4.97;3.20;;;;;;;30.69;nan;63042.91;5071903;28;20185;-56
2023/07/30 09:01:50;;;;;;;8.20;3.15;;;;;;;30.31;nan;62996.59;5072286;28;20629;-57
2023/07/30 09:04:17;;;;;;;6.75;3.58;;;;;;;30.42;nan;63191.28;5071185;28;20262;-56
2023/07/30 09:06:42;;;;;;;3.90;3.22;;;;;;;30.50;nan;63160.94;5089500;28;20446;-57
2023/07/30 09:09:11;;;;;;;3.95;2.97;;;;;;;30.70;nan;63011.81;5071512;28;20696;-57
2023/07/30 09:11:37;;;;;;;4.65;3.03;;;;;;;30.13;nan;63068.78;5080391;28;20565;-57
2023/07/30 09:14:02;;;;;;;4.25;3.20;;;;;;;30.71;nan;63002.97;5091709;28;20648;-57
2023/07/30 09:16:28;;;;;;;4.30;3.15;;;;;;;30.90;nan;63129.28;5073823;28;20621;-57
2023/07/30 09:18:54;;;;;;;4.53;3.25;;;;;;;30.91;nan;63098.75;5089430;28;20288;-56
2023/07/30 09:21:28;;;;;;;4.68;3.10;;;;;;;30.82;nan;63115.38;5071707;28;20173;-56
2023/07/30 09:23:54;;;;;;;4.40;3.15;;;;;;;;;;5070552;28;20192;-56
2023/07/30 09:26:19;;;;;;;4.50;3.15;;;;;;;30.80;nan;63035.94;5083840;28;20207;-55
2023/07/30 09:28:44;;;;;;;4.40;2.92;;;;;;;30.62;nan;63055.97;5076911;28;20184;-56
2023/07/30 09:31:10;;;;;;;4.95;3.28;;;;;;;30.69;nan;63005.97;5071148;28;20551;-56
2023/07/30 09:33:41;;;;;;;4.57;3.15;;;;;;;30.51;nan;63022.22;5083659;28;20181;-56
2023/07/30 09:36:07;;;;;;;4.47;3.42;;;;;;;27.74;nan;64512.72;5081638;28;20184;-56
2023/07/30 09:38:39;;;;;;;4.07;3.05;;;;;;;31.08;nan;63128.88;5079099;28;20181;-56
2023/07/30 09:41:04;;;;;;;4.38;3.00;;;;;;;31.19;nan;63199.66;5071291;28;20201;-57
2023/07/30 09:43:32;;;;;;;3.78;2.83;;;;;;;31.24;nan;63083.91;5089572;28;20208;-57
2023/07/30 09:46:02;;;;;;;3.90;3.10;;;;;;;31.10;nan;63199.88;5091759;28;20172;-57
2023/07/30 09:48:33;;;;;;;3.78;3.05;;;;;;;31.11;nan;63179.88;5091713;28;20267;-57
2023/07/30 09:51:02;;;;;;;5.53;3.50;;;;;;;31.30;nan;63117.22;5091374;28;20252;-56
2023/07/30 09:53:29;;;;;;;4.68;3.45;;;;;;;31.41;nan;63198.00;5091429;28;20200;-56
2023/07/30 09:55:55;;;;;;;5.28;3.40;;;;;;;31.52;nan;63147.81;5091006;28;20260;-56
2023/07/30 09:58:20;;;;;;;6.97;3.50;;;;;;;31.51;nan;63149.31;5091647;28;20200;-56
2023/07/30 10:00:48;;;;;;;5.07;3.60;;;;;;;31.55;nan;63274.91;5073543;28;20180;-56
2023/07/30 10:03:16;;;;;;;7.07;4.15;;;;;;;31.50;nan;63189.84;5090854;28;20209;-57
2023/07/30 10:05:44;;;;;;;4.68;3.17;;;;;;;31.49;nan;63263.28;5090973;28;20222;-56
2023/07/30 10:08:17;;;;;;;4.20;3.20;;;;;;;31.51;nan;63305.25;5090977;28;20173;-55
2023/07/30 10:10:43;;;;;;;3.90;3.22;;;;;;;31.53;nan;63164.84;5091580;28;20290;-56
2023/07/30 10:13:12;;;;;;;4.22;3.25;;;;;;;31.78;nan;63269.72;5091213;28;20533;-56
2023/07/30 10:15:38;;;;;;;3.78;3.30;;;;;;;32.04;nan;63285.91;5091555;28;20208;-57
2023/07/30 10:18:04;;;;;;;7.72;4.00;;;;;;;31.88;nan;63231.00;5091178;28;20651;-57
2023/07/30 10:20:31;;;;;;;4.93;3.58;;;;;;;32.12;nan;63284.56;5091139;28;20165;-56
2023/07/30 10:22:59;;;;;;;4.32;3.17;;;;;;;31.97;nan;63230.22;5091163;28;20567;-56
2023/07/30 10:25:52;;;;;;;7.00;3.15;;;;;;;32.06;nan;63335.81;5093091;28;20704;-56
2023/07/30 10:28:30;;;;;;;4.95;3.40;;;;;;;32.08;nan;63306.38;5095497;28;20266;-56
2023/07/30 10:31:01;;;;;;;5.32;3.40;;;;;;;31.96;nan;63361.88;5095653;28;20170;-57
2023/07/30 10:33:45;;;;;;;3.55;2.83;;;;;;;32.09;nan;63315.47;5090084;28;20712;-56
2023/07/30 10:36:10;;;;;;;5.38;3.88;;;;;;;32.15;nan;63271.56;5085124;28;20172;-57
2023/07/30 10:38:36;;;;;;;7.32;3.30;;;;;;;32.17;nan;63321.50;5082434;28;20181;-57
2023/07/30 10:41:06;;;;;;;4.82;3.30;;;;;;;31.92;nan;63283.22;5075412;28;20236;-57
2023/07/30 10:43:40;;;;;;;5.25;3.50;;;;;;;32.21;nan;63252.59;5092678;28;20579;-56
2023/07/30 10:46:06;;;;;;;4.00;3.30;;;;;;;31.40;nan;63223.84;5095268;28;20642;-56
2023/07/30 10:48:35;;;;;;;4.78;3.08;;;;;;;32.21;nan;63316.09;5083925;28;20181;-56
2023/07/30 10:51:22;;;;;;;3.60;2.70;;;;;;;32.28;nan;63350.03;5076601;28;20168;-56
2023/07/30 10:53:50;;;;;;;6.10;3.40;;;;;;;32.31;nan;63348.22;5075860;28;20573;-56
2023/07/30 10:56:17;;;;;;;4.15;3.28;;;;;;;32.27;nan;63219.25;5071789;28;20234;-57
2023/07/30 10:58:48;;;;;;;4.88;3.08;;;;;;;32.19;nan;63350.81;5079152;28;20215;-56
2023/07/30 11:01:13;;;;;;;6.57;4.00;;;;;;;32.36;nan;63357.22;5083261;28;20671;-57
2023/07/30 11:03:39;;;;;;;6.65;4.28;;;;;;;32.15;nan;63377.97;5074323;28;20170;-57
2023/07/30 11:06:04;;;;;;;5.20;3.63;;;;;;;32.28;nan;63323.59;5089055;28;20224;-58
2023/07/30 11:08:37;;;;;;;6.22;4.10;;;;;;;32.35;nan;63406.34;5094758;28;20161;-57
2023/07/30 11:11:04;;;;;;;5.22;3.80;;;;;;;32.39;nan;63336.84;5095385;28;20216;-58
2023/07/30 11:13:34;;;;;;;7.28;3.80;;;;;;;32.64;nan;63370.44;5094997;28;20191;-57
2023/07/30 11:16:00;;;;;;;5.03;3.45;;;;;;;32.66;nan;63353.63;5094645;28;20713;-55
2023/07/30 11:18:31;;;;;;;3.90;3.15;;;;;;;32.63;nan;63445.47;5094930;28;20164;-56
2023/07/30 11:21:12;;;;;;;4.43;3.33;;;;;;;32.95;nan;63424.16;5094840;28;20176;-56
2023/07/30 11:23:41;;;;;;;5.85;3.35;;;;;;;32.87;nan;63404.34;5089574;28;20185;-56
2023/07/30 11:26:08;;;;;;;4.40;3.42;;;;;;;32.90;nan;63402.50;5074024;28;20637;-56
2023/07/30 11:28:36;;;;;;;3.33;2.65;;;;;;;32.63;nan;63289.25;5073959;28;20269;-56
2023/07/30 11:31:04;;;;;;;4.20;2.55;;;;;;;32.44;nan;63297.63;5074309;28;20632;-55
2023/07/30 11:33:30;;;;;;;4.85;2.70;;;;;;;32.72;nan;63357.91;5073883;28;20503;-55
2023/07/30 11:35:56;;;;;;;3.28;2.78;;;;;;;33.04;nan;63410.69;5073816;28;20170;-56
2023/07/30 11:38:26;;;;;;;4.57;2.50;;;;;;;32.59;nan;63375.22;5073372;28;20191;-56
2023/07/30 11:40:52;;;;;;;3.22;2.50;;;;;;;32.84;nan;63475.03;5073664;28;20177;-56
2023/07/30 11:43:18;;;;;;;3.25;2.55;;;;;;;32.82;nan;63433.00;5073907;28;20226;-56
2023/07/30 11:45:44;;;;;;;4.18;2.50;;;;;;;32.64;nan;63391.63;5073709;28;20170;-56
2023/07/30 11:48:11;;;;;;;4.05;2.53;;;;;;;32.57;nan;63250.56;5072038;28;20208;-56